Arden, Nevada
Current Conditions -  °F | °C
As of 8:56 PM on Sunday 23 Nov 2014 (Local Time) from KLAS Reporting Station
Few Clouds Few Clouds  
Wind Chill: 51°   Ceiling: Unl
Heat Index: 51°   Visibility: 10mi
Dew Point:   Wind: 9mph
Humidity: 18%   Direction: 200°SSW
Pressure: 30.2"   Gusts: NA
Location:  36.079°N, 115.211°W
Report Text: KLAS 240456Z 20008KT 10SM FEW250 11/M13 A3020 RMK AO2 SLP223 T01061133 $
Loading
Personal Weather Stations






























Interactive Weather Map New forecast layout! Learn more

10-Day Weather Forecast

Advertisements
Track Severe Weather on mobile